Sea Cloud II — 9HUE6 — position and weather

sailwx.info

Track history (hours):
 
Tides and Currents Weather Stations Pressure Air Temp Water Temp Dewpoint Dewpoint Depression Visibility Wind Speed Wind Dir Waves Ship Positions

Sea Cloud II

Ship's website: http://www.seacloud.com/en/the-ships/sea-cloud-ii.html

Last reported at 2019-Mar-15 19:52 UTC. Time now 2019-Mar-26 00:54 UTC.
Position N 14°22' W 061°11'.
Warning: this ship's position is 10 days out of date.

Length 117 m; draft 6 m.

Type: Passenger vessel. MMSI: 248953000.

Date/timePositionNaut miles runAvg speedWind from/ knotsBaromVisibWave heightAir tempDewpointWater temp
2019-Mar-15 19:52N 14°22' W 061°11'3 7.4
2019-Mar-15 19:24N 14°25' W 061°09'2 5.5
2019-Mar-15 19:00N 14°26' W 061°07'3 5.6
2019-Mar-15 18:30N 14°29' W 061°06'1 2.6
2019-Mar-15 18:00N 14°30' W 061°06'0 0.0
2019-Mar-15 17:30N 14°30' W 061°06'0 0.0
2019-Mar-15 17:00N 14°30' W 061°06'0 0.0
2019-Mar-15 13:24N 14°30' W 061°06'0 0.0
2019-Mar-15 12:45N 14°30' W 061°06'0 0.0
2019-Mar-15 12:06N 14°30' W 061°06'0 0.1
2019-Mar-15 12:00N 14°30' W 061°06'0 0.1
2019-Mar-15 11:21N 14°30' W 061°06'1 3.0
2019-Mar-15 11:00N 14°30' W 061°07'3 6.4
2019-Mar-15 10:30N 14°32' W 061°09'3 5.7
2019-Mar-15 09:59N 14°34' W 061°12'3 3.7
2019-Mar-15 09:18N 14°36' W 061°13'1 4.4
2019-Mar-15 09:00N 14°37' W 061°14'  
2019-Mar-12 03:25N 17°04' W 062°39'14 0.4
2019-Mar-10 16:29N 17°16' W 062°47'710.7
2019-Mar-10 15:50N 17°13' W 062°54'1 2.9
2019-Mar-10 15:30N 17°14' W 062°54'19 4.6
2019-Mar-10 11:24N 17°33' W 062°57'5 5.0
2019-Mar-10 10:26N 17°35' W 063°01'3 6.4
2019-Mar-10 09:56N 17°37' W 063°04'3 6.2
2019-Mar-10 09:29N 17°38' W 063°07'3 6.3
2019-Mar-10 08:59N 17°40' W 063°10'4 8.8
2019-Mar-10 08:29N 17°42' W 063°14'510.4
2019-Mar-10 07:59N 17°44' W 063°19'810.4
2019-Mar-10 07:14N 17°48' W 063°26'75 9.0
2019-Mar-09 22:53N 18°21' W 064°37'410.2
2019-Mar-09 22:30N 18°22' W 064°41'5 9.1
2019-Mar-09 22:00N 18°23' W 064°46'3 6.1
2019-Mar-09 21:28N 18°26' W 064°46'0 0.0
2019-Mar-09 20:58N 18°26' W 064°46'0 0.1
2019-Mar-09 20:22N 18°26' W 064°46'0 0.0
2019-Mar-09 19:58N 18°26' W 064°46'0 0.0
2019-Mar-09 19:28N 18°26' W 064°46'0 0.0
2019-Mar-09 18:52N 18°26' W 064°46'0 0.0
2019-Mar-09 18:28N 18°26' W 064°46'0 0.0
2019-Mar-09 17:58N 18°26' W 064°46'0 0.0
2019-Mar-09 17:28N 18°26' W 064°46'0 0.0
2019-Mar-09 16:58N 18°26' W 064°46'0 0.0
2019-Mar-09 16:28N 18°26' W 064°46'2 4.0
2019-Mar-09 16:00N 18°25' W 064°46'2 3.3
2019-Mar-09 15:30N 18°23' W 064°46'2 4.8
2019-Mar-09 15:00N 18°22' W 064°43'2 5.0
2019-Mar-09 14:30N 18°22' W 064°41'3 5.0
2019-Mar-09 13:59N 18°22' W 064°38'3 5.3
2019-Mar-09 13:30N 18°23' W 064°35'3 5.2
2019-Mar-09 13:00N 18°23' W 064°33'3 5.1
2019-Mar-09 12:30N 18°24' W 064°30'2 4.5
2019-Mar-09 12:00N 18°24' W 064°28'2 4.8
2019-Mar-09 11:29N 18°23' W 064°25'59 4.6
2019-Mar-08 22:42N 18°04' W 063°27'2 4.7
2019-Mar-08 22:12N 18°03' W 063°25'2 5.1
2019-Mar-08 21:52N 18°03' W 063°23'2 5.1
2019-Mar-08 21:29N 18°02' W 063°21'3 5.1
2019-Mar-08 20:54N 18°01' W 063°18'2 5.5
2019-Mar-08 20:28N 18°00' W 063°16'3 6.7
2019-Mar-08 19:58N 17°59' W 063°12'3 6.7
2019-Mar-08 19:30N 17°58' W 063°09'4 6.5
2019-Mar-08 18:55N 17°57' W 063°06'3 6.1
2019-Mar-08 18:30N 17°56' W 063°03'3 6.2
2019-Mar-08 18:00N 17°56' W 062°60'5 9.4
2019-Mar-08 17:26N 17°55' W 062°54'1 0.2
2019-Mar-08 10:10N 17°54' W 062°53'1 5.5
2019-Mar-08 10:00N 17°53' W 062°53'4 7.6
2019-Mar-08 09:30N 17°51' W 062°50'  
2019-Mar-05 22:25N 17°54' W 062°53'  
Track history (hours):
 
Tides and Currents Weather Stations Pressure Air Temp Water Temp Dewpoint Dewpoint Depression Visibility Wind Speed Wind Dir Waves Ship Positions

Sea Cloud II

Ship's website: http://www.seacloud.com/en/the-ships/sea-cloud-ii.html

Last reported at 2019-Mar-15 19:52 UTC. Time now 2019-Mar-26 00:54 UTC.
Position N 14°22' W 061°11'.
Warning: this ship's position is 10 days out of date.

Length 117 m; draft 6 m.

Type: Passenger vessel. MMSI: 248953000.

Date/timePositionNaut miles runAvg speedWind from/ knotsBaromVisibWave heightAir tempDewpointWater temp
2019-Mar-15 19:52N 14°22' W 061°11'3 7.4
2019-Mar-15 19:24N 14°25' W 061°09'2 5.5
2019-Mar-15 19:00N 14°26' W 061°07'3 5.6
2019-Mar-15 18:30N 14°29' W 061°06'1 2.6
2019-Mar-15 18:00N 14°30' W 061°06'0 0.0
2019-Mar-15 17:30N 14°30' W 061°06'0 0.0
2019-Mar-15 17:00N 14°30' W 061°06'0 0.0
2019-Mar-15 13:24N 14°30' W 061°06'0 0.0
2019-Mar-15 12:45N 14°30' W 061°06'0 0.0
2019-Mar-15 12:06N 14°30' W 061°06'0 0.1
2019-Mar-15 12:00N 14°30' W 061°06'0 0.1
2019-Mar-15 11:21N 14°30' W 061°06'1 3.0
2019-Mar-15 11:00N 14°30' W 061°07'3 6.4
2019-Mar-15 10:30N 14°32' W 061°09'3 5.7
2019-Mar-15 09:59N 14°34' W 061°12'3 3.7
2019-Mar-15 09:18N 14°36' W 061°13'1 4.4
2019-Mar-15 09:00N 14°37' W 061°14'  
2019-Mar-12 03:25N 17°04' W 062°39'14 0.4
2019-Mar-10 16:29N 17°16' W 062°47'710.7
2019-Mar-10 15:50N 17°13' W 062°54'1 2.9
2019-Mar-10 15:30N 17°14' W 062°54'19 4.6
2019-Mar-10 11:24N 17°33' W 062°57'5 5.0
2019-Mar-10 10:26N 17°35' W 063°01'3 6.4
2019-Mar-10 09:56N 17°37' W 063°04'3 6.2
2019-Mar-10 09:29N 17°38' W 063°07'3 6.3
2019-Mar-10 08:59N 17°40' W 063°10'4 8.8
2019-Mar-10 08:29N 17°42' W 063°14'510.4
2019-Mar-10 07:59N 17°44' W 063°19'810.4
2019-Mar-10 07:14N 17°48' W 063°26'75 9.0
2019-Mar-09 22:53N 18°21' W 064°37'410.2
2019-Mar-09 22:30N 18°22' W 064°41'5 9.1
2019-Mar-09 22:00N 18°23' W 064°46'3 6.1
2019-Mar-09 21:28N 18°26' W 064°46'0 0.0
2019-Mar-09 20:58N 18°26' W 064°46'0 0.1
2019-Mar-09 20:22N 18°26' W 064°46'0 0.0
2019-Mar-09 19:58N 18°26' W 064°46'0 0.0
2019-Mar-09 19:28N 18°26' W 064°46'0 0.0
2019-Mar-09 18:52N 18°26' W 064°46'0 0.0
2019-Mar-09 18:28N 18°26' W 064°46'0 0.0
2019-Mar-09 17:58N 18°26' W 064°46'0 0.0
2019-Mar-09 17:28N 18°26' W 064°46'0 0.0
2019-Mar-09 16:58N 18°26' W 064°46'0 0.0
2019-Mar-09 16:28N 18°26' W 064°46'2 4.0
2019-Mar-09 16:00N 18°25' W 064°46'2 3.3
2019-Mar-09 15:30N 18°23' W 064°46'2 4.8
2019-Mar-09 15:00N 18°22' W 064°43'2 5.0
2019-Mar-09 14:30N 18°22' W 064°41'3 5.0
2019-Mar-09 13:59N 18°22' W 064°38'3 5.3
2019-Mar-09 13:30N 18°23' W 064°35'3 5.2
2019-Mar-09 13:00N 18°23' W 064°33'3 5.1
2019-Mar-09 12:30N 18°24' W 064°30'2 4.5
2019-Mar-09 12:00N 18°24' W 064°28'2 4.8
2019-Mar-09 11:29N 18°23' W 064°25'59 4.6
2019-Mar-08 22:42N 18°04' W 063°27'2 4.7
2019-Mar-08 22:12N 18°03' W 063°25'2 5.1
2019-Mar-08 21:52N 18°03' W 063°23'2 5.1
2019-Mar-08 21:29N 18°02' W 063°21'3 5.1
2019-Mar-08 20:54N 18°01' W 063°18'2 5.5
2019-Mar-08 20:28N 18°00' W 063°16'3 6.7
2019-Mar-08 19:58N 17°59' W 063°12'3 6.7
2019-Mar-08 19:30N 17°58' W 063°09'4 6.5
2019-Mar-08 18:55N 17°57' W 063°06'3 6.1
2019-Mar-08 18:30N 17°56' W 063°03'3 6.2
2019-Mar-08 18:00N 17°56' W 062°60'5 9.4
2019-Mar-08 17:26N 17°55' W 062°54'1 0.2
2019-Mar-08 10:10N 17°54' W 062°53'1 5.5
2019-Mar-08 10:00N 17°53' W 062°53'4 7.6
2019-Mar-08 09:30N 17°51' W 062°50'  
2019-Mar-05 22:25N 17°54' W 062°53'  

Dump ship's entire track history